createdAt,value
2023-10-16T00:01:40.541Z,98053.59
2023-10-16T00:04:08.099Z,98068.59
2023-10-16T00:06:36.232Z,98076.41
2023-10-16T00:09:16.295Z,98075.84
2023-10-16T00:11:44.114Z,98070.47
2023-10-16T00:14:25.191Z,98067.78
2023-10-16T00:16:53.128Z,98062.19
2023-10-16T00:19:20.240Z,98048.25
2023-10-16T00:21:47.716Z,98046.59
2023-10-16T00:24:15.210Z,98047.88
2023-10-16T00:26:50.494Z,98041.38
2023-10-16T00:29:18.790Z,98049.41
2023-10-16T00:31:52.751Z,98046.72
2023-10-16T00:34:23.805Z,98044.53
2023-10-16T00:36:56.075Z,98038.59
2023-10-16T00:39:27.233Z,98042.91
2023-10-16T00:41:54.409Z,98043.41
2023-10-16T00:44:23.824Z,98054.31
2023-10-16T00:46:54.240Z,98047.78
2023-10-16T00:49:24.930Z,98056.06
2023-10-16T00:51:52.301Z,98060.50
2023-10-16T00:54:31.233Z,98058.88
2023-10-16T00:56:59.525Z,98066.13
2023-10-16T00:59:29.754Z,98075.78
2023-10-16T01:02:08.143Z,98065.28
2023-10-16T01:04:51.776Z,98075.78
2023-10-16T01:07:20.727Z,98078.34
2023-10-16T01:09:53.906Z,98066.00
2023-10-16T01:12:23.475Z,98066.81
2023-10-16T01:14:50.871Z,98067.03
2023-10-16T01:17:30.731Z,98061.47
2023-10-16T01:19:58.293Z,98069.50
2023-10-16T01:22:30.976Z,98067.41
2023-10-16T01:25:01.315Z,98066.13
2023-10-16T01:27:32.112Z,98062.59
2023-10-16T01:30:03.134Z,98064.47
2023-10-16T01:32:35.056Z,98069.84
2023-10-16T01:35:02.823Z,98071.22
2023-10-16T01:37:33.643Z,98068.06
2023-10-16T01:40:17.789Z,98066.13
2023-10-16T01:42:46.965Z,98058.31
2023-10-16T01:45:16.900Z,98050.41
2023-10-16T01:47:44.270Z,98049.38
2023-10-16T01:50:22.992Z,98043.19
2023-10-16T01:52:51.333Z,98053.91
2023-10-16T01:55:20.717Z,98053.31
2023-10-16T01:57:49.409Z,98055.53
2023-10-16T02:00:25.871Z,98037.22
2023-10-16T02:02:53.680Z,98036.66
2023-10-16T02:05:21.060Z,98044.00
2023-10-16T02:07:48.895Z,98045.88
2023-10-16T02:10:16.707Z,98048.78
2023-10-16T02:12:43.852Z,98038.88
2023-10-16T02:15:11.918Z,98037.47
2023-10-16T02:17:42.236Z,98044.22
2023-10-16T02:20:13.069Z,98035.03
2023-10-16T02:22:43.277Z,98047.94
2023-10-16T02:25:12.554Z,98052.28
2023-10-16T02:27:43.022Z,98048.78
2023-10-16T02:30:26.527Z,98039.91
2023-10-16T02:33:01.063Z,98039.56
2023-10-16T02:35:28.955Z,98047.25
2023-10-16T02:37:59.131Z,98044.81
2023-10-16T02:40:26.713Z,98037.63
2023-10-16T02:42:57.919Z,98039.00
2023-10-16T02:45:26.876Z,98042.72
2023-10-16T02:47:54.726Z,98033.56
2023-10-16T02:50:22.089Z,98050.53
2023-10-16T02:52:49.830Z,98055.88
2023-10-16T02:55:17.185Z,98058.31
2023-10-16T02:57:44.379Z,98057.50
2023-10-16T03:00:36.538Z,98048.88
2023-10-16T03:03:07.168Z,98057.16
2023-10-16T03:05:34.450Z,98069.16
2023-10-16T03:08:02.120Z,98068.69
2023-10-16T03:10:32.503Z,98074.25
2023-10-16T03:13:07.144Z,98051.94
2023-10-16T03:15:47.135Z,98055.69
2023-10-16T03:18:18.894Z,98053.56
2023-10-16T03:20:47.083Z,98039.13
2023-10-16T03:23:15.609Z,98037.03
2023-10-16T03:25:43.023Z,98038.91
2023-10-16T03:28:10.766Z,98048.56
2023-10-16T03:30:41.312Z,98050.16
2023-10-16T03:33:09.181Z,98039.22
2023-10-16T03:35:51.420Z,98051.81
2023-10-16T03:38:35.590Z,98045.38
2023-10-16T03:41:04.890Z,98034.94
2023-10-16T03:43:31.910Z,98019.09
2023-10-16T03:45:59.750Z,98023.97
2023-10-16T03:48:27.277Z,98003.59
2023-10-16T03:50:57.557Z,98005.38
2023-10-16T03:53:25.436Z,98018.19
2023-10-16T03:55:52.879Z,98026.69
2023-10-16T03:58:19.823Z,98008.50
2023-10-16T04:00:58.303Z,98002.94
2023-10-16T04:03:28.317Z,98021.44
2023-10-16T04:05:55.789Z,98022.47
2023-10-16T04:08:23.407Z,98024.34
2023-10-16T04:10:51.248Z,98031.09
2023-10-16T04:13:20.700Z,98019.00
2023-10-16T04:16:06.149Z,98016.22
2023-10-16T04:18:35.836Z,98016.44
2023-10-16T04:21:16.104Z,98032.28
2023-10-16T04:23:48.861Z,98032.06
2023-10-16T04:26:28.928Z,98027.41
2023-10-16T04:29:06.369Z,98032.97
2023-10-16T04:31:46.917Z,98025.44
2023-10-16T04:34:28.621Z,98024.94
2023-10-16T04:37:15.879Z,98021.00
2023-10-16T04:40:11.148Z,98012.16
2023-10-16T04:43:10.074Z,98022.75
2023-10-16T04:45:40.549Z,98035.88
2023-10-16T04:48:08.662Z,98039.13
2023-10-16T04:53:07.630Z,98031.69
2023-10-16T04:55:47.383Z,98025.97
2023-10-16T04:58:20.081Z,98012.94
2023-10-16T05:01:18.732Z,98021.53
2023-10-16T05:04:05.865Z,98020.16
2023-10-16T05:06:33.145Z,98026.31
2023-10-16T05:09:18.798Z,98023.16
2023-10-16T05:12:06.964Z,98013.25
2023-10-16T05:14:43.542Z,98008.47
2023-10-16T05:17:27.336Z,98008.47
2023-10-16T05:19:54.931Z,98007.31
2023-10-16T05:22:37.266Z,97997.44
2023-10-16T05:25:23.833Z,98006.19
2023-10-16T05:28:10.254Z,98005.38
2023-10-16T05:30:55.894Z,97995.47
2023-10-16T05:33:43.152Z,97982.81
2023-10-16T05:36:29.121Z,97992.00
2023-10-16T05:39:14.614Z,97984.78
2023-10-16T05:42:01.624Z,97983.47
2023-10-16T05:44:47.455Z,98010.09
2023-10-16T05:47:33.020Z,98006.13
2023-10-16T05:50:19.347Z,98009.88
2023-10-16T05:53:05.014Z,98005.59
2023-10-16T05:55:54.229Z,98002.31
2023-10-16T05:58:39.929Z,97995.81
2023-10-16T06:01:26.840Z,97989.16
2023-10-16T06:04:12.715Z,98000.69
2023-10-16T06:07:00.760Z,98006.03
2023-10-16T06:09:53.259Z,98011.38
2023-10-16T06:12:39.627Z,98025.63
2023-10-16T06:15:09.098Z,98032.81
2023-10-16T06:17:39.479Z,98025.50
2023-10-16T06:20:10.816Z,98015.50
2023-10-16T06:22:38.132Z,98022.97
2023-10-16T06:25:11.525Z,98011.19
2023-10-16T06:27:43.049Z,98010.38
2023-10-16T06:30:20.050Z,98015.50
2023-10-16T06:32:50.840Z,98006.66
2023-10-16T06:35:18.320Z,98013.63
2023-10-16T06:37:53.234Z,98013.97
2023-10-16T06:40:26.347Z,98013.97
2023-10-16T06:43:12.528Z,98017.38
2023-10-16T06:46:04.484Z,98011.78
2023-10-16T06:48:42.002Z,98008.06
2023-10-16T06:51:16.913Z,98001.31
2023-10-16T06:53:47.235Z,97991.41
2023-10-16T06:56:28.785Z,97996.78
2023-10-16T06:58:58.057Z,97989.31
2023-10-16T07:01:27.321Z,97989.31
2023-10-16T07:03:58.447Z,97976.16
2023-10-16T07:06:33.723Z,97985.25
2023-10-16T07:09:07.417Z,97983.88
2023-10-16T07:11:35.047Z,97980.34
2023-10-16T07:14:02.184Z,97977.47
2023-10-16T07:16:30.568Z,97979.94
2023-10-16T07:18:59.081Z,97971.53
2023-10-16T07:21:26.618Z,97977.72
2023-10-16T07:23:56.523Z,97970.72
2023-10-16T07:26:26.210Z,97970.41
2023-10-16T07:28:53.663Z,97963.41
2023-10-16T07:31:21.154Z,97968.88
2023-10-16T07:34:01.390Z,97974.22
2023-10-16T07:36:28.895Z,97973.41
2023-10-16T07:38:56.023Z,97963.50
2023-10-16T07:41:25.355Z,97964.78
2023-10-16T07:43:58.832Z,97969.13
2023-10-16T07:46:31.789Z,97968.75
2023-10-16T07:49:04.502Z,97957.72
2023-10-16T07:51:31.953Z,97960.88
2023-10-16T07:54:01.401Z,97952.06
2023-10-16T07:56:33.745Z,97950.28
2023-10-16T07:59:10.396Z,97952.38
2023-10-16T08:01:59.886Z,97936.91
2023-10-16T08:04:27.213Z,97927.81
2023-10-16T08:07:16.712Z,97941.78
2023-10-16T08:09:59.106Z,97949.72
2023-10-16T08:12:47.116Z,97950.88
2023-10-16T08:15:23.996Z,97940.09
2023-10-16T08:17:53.413Z,97937.53
2023-10-16T08:20:20.976Z,97932.56
2023-10-16T08:22:50.294Z,97931.28
2023-10-16T08:25:32.663Z,97913.41
2023-10-16T08:28:19.587Z,97915.41
2023-10-16T08:30:50.214Z,97930.75
2023-10-16T08:33:17.901Z,97932.03
2023-10-16T08:35:46.650Z,97935.03
2023-10-16T08:38:27.369Z,97934.34
2023-10-16T08:41:08.599Z,97930.72
2023-10-16T08:44:12.418Z,97931.28
2023-10-16T08:46:46.701Z,97928.28
2023-10-16T08:49:14.367Z,97934.59
2023-10-16T08:51:41.757Z,97939.94
2023-10-16T08:54:38.475Z,97929.47
2023-10-16T08:57:11.999Z,97938.53
2023-10-16T08:59:43.859Z,97930.53
2023-10-16T09:02:15.496Z,97931.59
2023-10-16T09:04:43.247Z,97920.78
2023-10-16T09:07:13.808Z,97927.50
2023-10-16T09:09:42.602Z,97921.47
2023-10-16T09:12:12.751Z,97919.28
2023-10-16T09:14:42.529Z,97913.94
2023-10-16T09:17:09.797Z,97918.56
2023-10-16T09:19:58.658Z,97914.84
2023-10-16T09:22:31.935Z,97907.88
2023-10-16T09:25:00.718Z,97905.44
2023-10-16T09:27:37.771Z,97903.78
2023-10-16T09:30:16.190Z,97901.69
2023-10-16T09:32:43.970Z,97908.31
2023-10-16T09:35:15.445Z,97906.03
2023-10-16T09:37:48.886Z,97905.44
2023-10-16T09:40:41.555Z,97909.84
2023-10-16T09:43:25.390Z,97905.19
2023-10-16T09:46:12.930Z,97911.69
2023-10-16T09:48:41.591Z,97918.91
2023-10-16T09:51:10.576Z,97902.75
2023-10-16T09:53:38.185Z,97901.59
2023-10-16T09:56:07.447Z,97904.47
2023-10-16T09:58:37.383Z,97906.13
2023-10-16T10:01:11.138Z,97913.09
2023-10-16T10:03:39.952Z,97909.84
2023-10-16T10:06:13.831Z,97912.28
2023-10-16T10:08:59.446Z,97913.56
2023-10-16T10:12:16.206Z,97914.59
2023-10-16T10:15:02.523Z,97902.50
2023-10-16T10:17:35.047Z,97894.50
2023-10-16T10:20:10.550Z,97888.44
2023-10-16T10:22:39.438Z,97890.63
2023-10-16T10:25:24.200Z,97892.75
2023-10-16T10:28:15.600Z,97885.06
2023-10-16T10:30:47.053Z,97888.59
2023-10-16T10:33:35.713Z,97887.41
2023-10-16T10:36:30.316Z,97889.16
2023-10-16T10:39:28.659Z,97882.06
2023-10-16T10:42:05.318Z,97874.06
2023-10-16T10:44:42.445Z,97873.69
2023-10-16T10:47:32.378Z,97866.94
2023-10-16T10:50:02.196Z,97863.69
2023-10-16T10:52:34.205Z,97863.59
2023-10-16T10:55:15.867Z,97857.66
2023-10-16T10:57:49.137Z,97853.59
2023-10-16T11:00:30.013Z,97854.28
2023-10-16T11:03:03.377Z,97844.88
2023-10-16T11:05:32.749Z,97846.44
2023-10-16T11:08:21.333Z,97850.84
2023-10-16T11:10:48.820Z,97837.16
2023-10-16T11:13:19.556Z,97827.94
2023-10-16T11:15:54.621Z,97829.00
2023-10-16T11:18:27.862Z,97829.81
2023-10-16T11:21:06.123Z,97823.75
2023-10-16T11:23:41.766Z,97831.38
2023-10-16T11:26:15.160Z,97830.69
2023-10-16T11:28:50.443Z,97819.63
2023-10-16T11:31:39.513Z,97818.00
2023-10-16T11:34:26.062Z,97819.53
2023-10-16T11:36:58.495Z,97812.56
2023-10-16T11:39:27.644Z,97802.91
2023-10-16T11:41:55.402Z,97806.16
2023-10-16T11:44:27.693Z,97802.91
2023-10-16T11:46:55.294Z,97808.72
2023-10-16T11:49:24.454Z,97799.31
2023-10-16T11:51:55.400Z,97801.41
2023-10-16T11:54:27.588Z,97790.97
2023-10-16T11:57:01.079Z,97795.25
2023-10-16T11:59:30.190Z,97792.59
2023-10-16T12:02:04.113Z,97795.94
2023-10-16T12:04:35.262Z,97802.44
2023-10-16T12:07:06.422Z,97792.09
2023-10-16T12:09:39.493Z,97793.16
2023-10-16T12:12:14.480Z,97784.09
2023-10-16T12:14:43.546Z,97787.34
2023-10-16T12:17:15.267Z,97783.63
2023-10-16T12:19:43.077Z,97784.66
2023-10-16T12:22:16.966Z,97787.25
2023-10-16T12:24:45.602Z,97774.13
2023-10-16T12:27:17.214Z,97786.22
2023-10-16T12:29:47.507Z,97779.31
2023-10-16T12:32:15.102Z,97783.38
2023-10-16T12:34:43.709Z,97781.06
2023-10-16T12:37:12.941Z,97784.84
2023-10-16T12:40:00.825Z,97788.09
2023-10-16T12:42:30.663Z,97787.38
2023-10-16T12:45:00.053Z,97787.97
2023-10-16T12:47:43.876Z,97786.31
2023-10-16T12:50:13.169Z,97786.59
2023-10-16T12:52:43.818Z,97787.88
2023-10-16T12:55:13.591Z,97784.94
2023-10-16T12:57:45.412Z,97792.41
2023-10-16T13:00:22.543Z,97790.47
2023-10-16T13:02:52.685Z,97788.25
2023-10-16T13:05:26.975Z,97781.50
2023-10-16T13:07:57.897Z,97787.22
2023-10-16T13:10:30.091Z,97787.22
2023-10-16T13:12:59.380Z,97780.22
2023-10-16T13:15:31.883Z,97791.25
2023-10-16T13:18:02.878Z,97782.44
2023-10-16T13:20:32.180Z,97784.28
2023-10-16T13:23:01.379Z,97780.22
2023-10-16T13:25:48.012Z,97783.16
2023-10-16T13:28:15.656Z,97783.72
2023-10-16T13:30:46.142Z,97783.47
2023-10-16T13:33:13.723Z,97788.25
2023-10-16T13:35:42.891Z,97792.28
2023-10-16T13:38:11.065Z,97792.28
2023-10-16T13:40:40.168Z,97796.63
2023-10-16T13:43:12.322Z,97797.66
2023-10-16T13:45:41.563Z,97801.59
2023-10-16T13:48:11.497Z,97802.91
2023-10-16T13:50:42.252Z,97796.41
2023-10-16T13:53:12.964Z,97800.13
2023-10-16T13:55:41.419Z,97801.91
2023-10-16T13:58:10.226Z,97801.09
2023-10-16T14:00:39.410Z,97802.38
2023-10-16T14:03:11.733Z,97811.47
2023-10-16T14:05:52.240Z,97807.41
2023-10-16T14:08:32.223Z,97811.69
2023-10-16T14:11:02.054Z,97802.88
2023-10-16T14:13:30.110Z,97797.25
2023-10-16T14:16:18.123Z,97790.78
2023-10-16T14:18:46.025Z,97792.88
2023-10-16T14:21:15.431Z,97795.06
2023-10-16T14:26:35.481Z,97797.16
2023-10-16T14:29:05.327Z,97792.06
2023-10-16T14:31:35.801Z,97797.41
2023-10-16T14:34:07.190Z,97790.22
2023-10-16T14:36:37.775Z,97789.97
2023-10-16T14:39:06.157Z,97786.94
2023-10-16T14:41:33.766Z,97786.16
2023-10-16T14:44:08.450Z,97788.25
2023-10-16T14:46:44.968Z,97786.16
2023-10-16T14:49:13.611Z,97780.47
2023-10-16T14:51:42.846Z,97790.34
2023-10-16T14:54:12.476Z,97784.19
2023-10-16T14:56:45.622Z,97783.03
2023-10-16T14:59:36.471Z,97775.56
2023-10-16T15:02:05.427Z,97773.38
2023-10-16T15:04:34.379Z,97775.56
2023-10-16T15:07:06.526Z,97785.25
2023-10-16T15:09:35.001Z,97786.28
2023-10-16T15:12:02.859Z,97780.13
2023-10-16T15:14:32.175Z,97790.59
2023-10-16T15:16:59.736Z,97791.16
2023-10-16T15:19:30.364Z,97792.78
2023-10-16T15:22:02.996Z,97796.50
2023-10-16T15:24:33.440Z,97791.63
2023-10-16T15:27:04.567Z,97784.19
2023-10-16T15:29:32.176Z,97778.25
2023-10-16T15:31:59.909Z,97788.94
2023-10-16T15:34:40.279Z,97793.75
2023-10-16T15:37:11.273Z,97792.09
2023-10-16T15:39:40.564Z,97780.28
2023-10-16T15:42:09.716Z,97785.63
2023-10-16T15:44:38.332Z,97780.28
2023-10-16T15:47:08.602Z,97782.81
2023-10-16T15:49:37.870Z,97779.22
2023-10-16T15:52:07.175Z,97778.53
2023-10-16T15:54:35.865Z,97779.91
2023-10-16T15:57:04.649Z,97779.09
2023-10-16T15:59:33.501Z,97786.53
2023-10-16T16:02:03.647Z,97777.38
2023-10-16T16:04:33.895Z,97771.00
2023-10-16T16:07:05.405Z,97779.81
2023-10-16T16:09:34.178Z,97779.00
2023-10-16T16:12:01.702Z,97776.66
2023-10-16T16:14:29.651Z,97766.78
2023-10-16T16:17:02.265Z,97755.06
2023-10-16T16:19:30.092Z,97775.38
2023-10-16T16:22:02.487Z,97771.09
2023-10-16T16:24:30.244Z,97761.00
2023-10-16T16:26:57.693Z,97778.06
2023-10-16T16:29:26.377Z,97780.28
2023-10-16T16:31:58.970Z,97775.97
2023-10-16T16:34:27.640Z,97775.38
2023-10-16T16:36:55.147Z,97782.94
2023-10-16T16:39:22.683Z,97788.84
2023-10-16T16:41:51.690Z,97782.47
2023-10-16T16:44:21.335Z,97780.38
2023-10-16T16:46:50.537Z,97777.69
2023-10-16T16:49:18.171Z,97766.53
2023-10-16T16:51:46.796Z,97766.75
2023-10-16T16:54:15.349Z,97760.59
2023-10-16T16:56:46.484Z,97746.66
2023-10-16T16:59:18.226Z,97757.94
2023-10-16T17:01:49.353Z,97760.91
2023-10-16T17:04:43.464Z,97755.72
2023-10-16T17:07:31.895Z,97753.16
2023-10-16T17:10:02.575Z,97766.75
2023-10-16T17:12:35.314Z,97753.06
2023-10-16T17:15:04.420Z,97750.28
2023-10-16T17:17:33.165Z,97761.41
2023-10-16T17:20:01.511Z,97757.81
2023-10-16T17:22:44.274Z,97753.25
2023-10-16T17:25:20.785Z,97741.41
2023-10-16T17:27:50.603Z,97728.19
2023-10-16T17:30:19.804Z,97734.44
2023-10-16T17:32:50.762Z,97732.81
2023-10-16T17:35:28.793Z,97738.16
2023-10-16T17:37:57.516Z,97730.03
2023-10-16T17:40:26.162Z,97736.22
2023-10-16T17:42:57.118Z,97738.75
2023-10-16T17:45:24.882Z,97740.03
2023-10-16T17:47:55.434Z,97740.41
2023-10-16T17:50:25.031Z,97727.88
2023-10-16T17:55:35.493Z,97736.25
2023-10-16T17:58:04.775Z,97728.72
2023-10-16T18:00:32.528Z,97720.13
2023-10-16T18:03:00.765Z,97744.84
2023-10-16T18:05:36.759Z,97743.78
2023-10-16T18:08:10.577Z,97733.31
2023-10-16T18:10:47.085Z,97728.91
2023-10-16T18:13:14.603Z,97729.72
2023-10-16T18:15:51.640Z,97721.91
2023-10-16T18:18:19.830Z,97724.84
2023-10-16T18:20:50.458Z,97732.28
2023-10-16T18:23:19.128Z,97712.69
2023-10-16T18:25:47.920Z,97705.94
2023-10-16T18:28:50.152Z,97718.47
2023-10-16T18:31:30.017Z,97705.88
2023-10-16T18:33:57.464Z,97706.78
2023-10-16T18:36:24.877Z,97722.19
2023-10-16T18:38:52.328Z,97723.72
2023-10-16T18:41:21.195Z,97739.03
2023-10-16T18:43:51.100Z,97740.91
2023-10-16T18:46:19.246Z,97748.94
2023-10-16T18:48:47.058Z,97739.31
2023-10-16T18:51:14.298Z,97740.69
2023-10-16T18:53:46.728Z,97736.63
2023-10-16T18:56:13.928Z,97737.06
2023-10-16T18:58:41.461Z,97726.38
2023-10-16T19:01:13.015Z,97725.34
2023-10-16T19:03:40.274Z,97735.78
2023-10-16T19:06:07.665Z,97731.28
2023-10-16T19:08:36.148Z,97732.09
2023-10-16T19:11:03.748Z,97727.22
2023-10-16T19:13:31.962Z,97721.31
2023-10-16T19:15:59.597Z,97722.81
2023-10-16T19:18:30.835Z,97717.94
2023-10-16T19:21:02.266Z,97717.63
2023-10-16T19:23:32.943Z,97712.72
2023-10-16T19:26:17.847Z,97715.41
2023-10-16T19:28:45.930Z,97729.72
2023-10-16T19:31:16.213Z,97729.13
2023-10-16T19:33:44.611Z,97718.34
2023-10-16T19:36:21.807Z,97712.41
2023-10-16T19:38:50.994Z,97718.34
2023-10-16T19:41:22.801Z,97720.09
2023-10-16T19:43:54.301Z,97715.69
2023-10-16T19:46:23.964Z,97713.00
2023-10-16T19:48:51.275Z,97713.25
2023-10-16T19:51:19.951Z,97707.34
2023-10-16T19:53:48.671Z,97715.13
2023-10-16T19:56:18.921Z,97723.94
2023-10-16T19:58:49.626Z,97719.06
2023-10-16T20:01:16.690Z,97723.25
2023-10-16T20:03:50.637Z,97714.66
2023-10-16T20:06:20.267Z,97715.25
2023-10-16T20:08:47.892Z,97719.88
2023-10-16T20:11:15.145Z,97714.44
2023-10-16T20:13:47.871Z,97715.13
2023-10-16T20:16:15.184Z,97713.50
2023-10-16T20:18:43.523Z,97712.81
2023-10-16T20:21:19.319Z,97716.28
2023-10-16T20:23:48.678Z,97725.09
2023-10-16T20:26:17.995Z,97729.31
2023-10-16T20:28:51.458Z,97723.59
2023-10-16T20:31:19.920Z,97714.56
2023-10-16T20:33:49.985Z,97716.19
2023-10-16T20:36:22.267Z,97717.47
2023-10-16T20:38:55.993Z,97710.72
2023-10-16T20:41:25.447Z,97714.47
2023-10-16T20:43:58.773Z,97702.38
2023-10-16T20:46:26.106Z,97685.56
2023-10-16T20:48:54.179Z,97702.03
2023-10-16T20:51:21.904Z,97701.22
2023-10-16T20:53:48.963Z,97699.56
2023-10-16T20:56:16.084Z,97705.63
2023-10-16T20:58:43.173Z,97694.38
2023-10-16T21:01:16.576Z,97707.59
2023-10-16T21:03:43.773Z,97712.34
2023-10-16T21:06:14.336Z,97712.13
2023-10-16T21:08:41.489Z,97720.69
2023-10-16T21:11:09.562Z,97719.53
2023-10-16T21:13:37.801Z,97724.06
2023-10-16T21:16:05.668Z,97719.19
2023-10-16T21:18:32.753Z,97730.09
2023-10-16T21:21:02.510Z,97722.91
2023-10-16T21:23:29.540Z,97730.91
2023-10-16T21:25:56.531Z,97733.56
2023-10-16T21:28:24.198Z,97738.78
2023-10-16T21:30:58.082Z,97732.06
2023-10-16T21:33:25.699Z,97742.72
2023-10-16T21:35:52.874Z,97746.31
2023-10-16T21:38:22.815Z,97745.28
2023-10-16T21:40:49.796Z,97736.22
2023-10-16T21:43:16.829Z,97741.53
2023-10-16T21:45:43.980Z,97746.06
2023-10-16T21:48:11.292Z,97738.06
2023-10-16T21:50:38.363Z,97752.22
2023-10-16T21:53:06.730Z,97737.94
2023-10-16T21:55:33.721Z,97756.41
2023-10-16T21:58:00.765Z,97739.59
2023-10-16T22:00:51.550Z,97745.38
2023-10-16T22:03:18.743Z,97747.91
2023-10-16T22:05:46.501Z,97745.69
2023-10-16T22:08:16.548Z,97741.41
2023-10-16T22:10:44.364Z,97743.25
2023-10-16T22:13:12.157Z,97749.97
2023-10-16T22:15:42.122Z,97750.69
2023-10-16T22:18:09.370Z,97754.25
2023-10-16T22:20:37.117Z,97751.38
2023-10-16T22:23:05.874Z,97749.72
2023-10-16T22:25:34.688Z,97753.66
2023-10-16T22:28:08.513Z,97759.22
2023-10-16T22:30:36.372Z,97753.31
2023-10-16T22:33:03.571Z,97762.56
2023-10-16T22:35:30.688Z,97761.78
2023-10-16T22:37:57.735Z,97755.84
2023-10-16T22:40:26.289Z,97765.91
2023-10-16T22:42:54.951Z,97761.25
2023-10-16T22:45:23.772Z,97764.38
2023-10-16T22:47:51.860Z,97757.66
2023-10-16T22:50:19.071Z,97758.69
2023-10-16T22:52:46.201Z,97762.63
2023-10-16T22:55:13.594Z,97755.44
2023-10-16T22:57:41.864Z,97749.31
2023-10-16T23:00:16.738Z,97748.72
2023-10-16T23:02:44.199Z,97756.13
2023-10-16T23:05:15.352Z,97758.19
2023-10-16T23:07:48.004Z,97746.97
2023-10-16T23:10:18.379Z,97756.56
2023-10-16T23:12:47.246Z,97750.06
2023-10-16T23:15:20.138Z,97749.69
2023-10-16T23:17:51.914Z,97762.44
2023-10-16T23:20:25.721Z,97764.28
2023-10-16T23:22:54.078Z,97763.09
2023-10-16T23:25:24.049Z,97760.75
2023-10-16T23:27:57.451Z,97758.69
2023-10-16T23:30:26.728Z,97765.28
2023-10-16T23:32:54.245Z,97758.53
2023-10-16T23:35:23.057Z,97760.59
2023-10-16T23:37:50.509Z,97760.00
2023-10-16T23:40:35.834Z,97758.41
2023-10-16T23:43:12.036Z,97757.81
2023-10-16T23:45:41.554Z,97752.13
2023-10-16T23:48:19.842Z,97751.72
2023-10-16T23:50:51.809Z,97754.41
2023-10-16T23:53:32.423Z,97756.47
2023-10-16T23:56:18.687Z,97751.59
2023-10-16T23:58:51.638Z,97753.66
